Dunnellon, FL (34434)

2:54 PM EDT on October 01, 2014 (GMT -0400)
Citrus Springs | Change Station
CLOSE
Current Station
Personal Weather Station
Location: Dunnellon, FL
Elevation: 63 ft
Nearby Weather Stations

Elev 63 ft 28.99 °N, 82.44 °W | Updated 1 minute ago

Overcast
Overcast
86.9 °F
Feels Like 98 °F
N
0.0
Wind Variable Wind from NNE
Gusts 2.0 mph

Today
High -- | Low -- °F
--% Chance of Precip.
Yesterday
High -- | Low -- °F
Precip. -- in
7:22 AM 7:15 PM
Waxing Crescent, 50% visible
Pressure 29.92 in
Visibility 10.0 miles
Clouds Scattered Clouds 2800 ft
Mostly Cloudy 5500 ft
Heat Index 98 °F
Dew Point 77 °F
Humidity 72%
Rainfall 0.01 in
Snow Depth Not available.
UV 6 out of 12
Pollen 5.40 out of 12
Air Quality Not available.
Flu Activity Not available.
METAR KCGC 011835Z AUTO 28003KT 10SM SCT028 BKN055 29/21 A2992 RMK AO2 PWINO

More Conditions Fewer Conditions

Pressure 29.92 in
Visibility 10.0 miles
Clouds Scattered Clouds 2800 ft
Mostly Cloudy 5500 ft
Heat Index 98 °F
Dew Point 77 °F
Humidity 72%
Rainfall 0.01 in
Snow Depth Not available.
UV 6 out of 12
Pollen 5.40 out of 12
Air Quality Not available.
Flu Activity Not available.
METAR KCGC 011835Z AUTO 28003KT 10SM SCT028 BKN055 29/21 A2992 RMK AO2 PWINO

More Conditions Fewer Conditions

10-Day Weather Forecast

Almanac

Astronomy

Oct. 01, 2014 Rise Set
Actual Time 7:22 AM EDT 7:15 PM EDT
Civil Twilight 6:59 AM EDT 7:39 PM EDT
Nautical Twilight 6:31 AM EDT 8:06 PM EDT
Astronomical Twilight 6:04 AM EDT 8:34 PM EDT
Moon 2:03 PM EDT 12:06 AM EDT
Length of Visible Light 12h 39m
Length of Day
11h 52m
Tomorrow will be 1m 44s shorter.
Waxing Crescent, 50% of the Moon is Illuminated
Today
Waxing Crescent
Oct 1
First Quarter
Oct 8
Full
Oct 15
Last Quarter
Oct 23
New

Today's Extremes

State Highs State Lows

Community

WunderPhotos

Upload Photos

1,758,010 photos uploaded!

WunderBlogs® & News

By Dr. Jeff Masters
Director of Meteorology, Weather Underground
By Kari Strenfel
Meteorologist, Weather Underground
By Christopher C. Burt
Weather Historian, Weather Underground
October 1, 2014
October 1, 2014
October 1, 2014

Nearby

Snow Depth

Station Depth Elevation
No new snow has been reported.

Earthquake Activity

City Distance Mag. Time & Date
No recent earthquake activity has been reported nearby.
Minimum magnitude displayed is 2.5.

Coastal Water Temperatures

Place Temperature
No Stations Reporting

Nearby Weather Stations